Hyundai Forward — 3EJY9 — position and weather

sailwx.info

Track history (hours):
 
Tides and Currents Weather Stations Pressure Air Temp Water Temp Dewpoint Dewpoint Depression Visibility Wind Speed Wind Dir Waves Ship Positions

Hyundai Forward

Last reported at 2015-Jun-26 06:13 UTC. Time now 2015-Jul-06 04:55 UTC.
Position N 30°36' E 122°57'.
Warning: this ship's position is 9 days out of date.

Length 295 m; draft 10 m.

Type: Cargo ship. MMSI: 372652000.

Date/timePositionNaut miles runAvg speedWind from/ knotsBaromVisibWave heightAir tempDewpointWater temp
2015-Jun-26 06:13N 30°36' E 122°57'1217.2
2015-Jun-26 05:33N 30°33' E 122°44'1716.5
2015-Jun-26 04:31N 30°31' E 122°25'1414.1
2015-Jun-26 03:33N 30°34' E 122°09'4 0.6
2015-Jun-25 20:33N 30°36' E 122°05'0 0.0
2015-Jun-25 18:33N 30°36' E 122°05'0 0.0
2015-Jun-25 15:09N 30°36' E 122°05'0 0.1
2015-Jun-25 14:15N 30°36' E 122°05'7 9.5
2015-Jun-25 13:33N 30°34' E 122°12'10 9.3
2015-Jun-25 12:29N 30°31' E 122°24'1 0.8
2015-Jun-25 11:33N 30°31' E 122°24'6 0.7
2015-Jun-25 03:04N 30°29' E 122°30'1 2.7
2015-Jun-25 02:32N 30°29' E 122°32'8 7.8
2015-Jun-25 01:33N 30°29' E 122°41'1010.0
2015-Jun-25 00:33N 30°25' E 122°51'9 7.6
2015-Jun-24 23:22N 30°19' E 122°59'36 7.3
2015-Jun-24 18:31N 29°46' E 122°43'8 7.6
2015-Jun-24 17:32N 29°41' E 122°36'7 7.0
2015-Jun-24 16:33N 29°42' E 122°28'8 7.9
2015-Jun-24 15:31N 29°44' E 122°19'9 9.3
2015-Jun-24 14:33N 29°51' E 122°12'1110.7
2015-Jun-24 13:33N 29°46' E 122°01'0 0.1
2015-Jun-24 10:31N 29°46' E 122°00'0 0.0
2015-Jun-24 04:19N 29°46' E 122°00'0 0.2
2015-Jun-24 03:33N 29°46' E 122°01'1 0.8
2015-Jun-24 02:14N 29°46' E 122°02'0 0.0
2015-Jun-24 00:32N 29°46' E 122°02'0 0.0
2015-Jun-23 23:26N 29°46' E 122°02'0 0.1
2015-Jun-23 22:32N 29°46' E 122°02'0 0.2
2015-Jun-23 21:32N 29°47' E 122°02'0 0.0
2015-Jun-23 20:32N 29°47' E 122°02'0 0.0
2015-Jun-23 19:20N 29°47' E 122°02'0 0.2
2015-Jun-23 19:02N 29°47' E 122°02'425 9.6
2015-Jun-21 22:31N 22°56' E 119°57'1515.8
2015-Jun-21 21:33N 22°43' E 120°05'1514.7
2015-Jun-21 20:34N 22°33' E 120°16'2 1.8
2015-Jun-21 19:16N 22°34' E 120°19'0 0.0
2015-Jun-21 18:28N 22°34' E 120°19'0 0.0
2015-Jun-21 17:10N 22°34' E 120°19'0 0.0
2015-Jun-21 16:28N 22°34' E 120°19'0 0.1
2015-Jun-21 15:28N 22°34' E 120°19'0 0.0
2015-Jun-21 14:28N 22°34' E 120°19'0 0.1
2015-Jun-21 13:28N 22°34' E 120°19'0 0.0
2015-Jun-21 12:28N 22°34' E 120°19'0 0.0
2015-Jun-21 11:28N 22°34' E 120°19'0 0.0
2015-Jun-21 10:28N 22°34' E 120°19'0 0.0
2015-Jun-21 09:28N 22°34' E 120°19'0 0.1
2015-Jun-21 08:33N 22°34' E 120°19'6 5.9
2015-Jun-21 07:30N 22°32' E 120°12'1415.1
2015-Jun-21 06:33N 22°44' E 120°04'12215.1
2015-Jun-20 22:28N 24°09' E 118°28'1415.2
2015-Jun-20 21:33N 24°16' E 118°15'1413.8
2015-Jun-20 20:33N 24°25' E 118°04'3 3.4
2015-Jun-20 19:31N 24°27' E 118°00'0 0.0
2015-Jun-20 18:31N 24°27' E 118°00'0 0.0
2015-Jun-20 17:19N 24°27' E 118°00'0 0.0
2015-Jun-20 16:19N 24°27' E 118°00'0 0.0
2015-Jun-20 15:07N 24°27' E 118°00'0 0.0
2015-Jun-20 13:13N 24°27' E 118°00'3 5.0
2015-Jun-20 12:32N 24°26' E 118°04'10 9.9
2015-Jun-20 11:33N 24°19' E 118°12'10 9.9
2015-Jun-20 10:33N 24°11' E 118°19'8 8.3
2015-Jun-20 09:32N 24°11' E 118°28'8 8.0
2015-Jun-20 08:33N 24°13' E 118°36'12 8.2
2015-Jun-20 07:03N 24°19' E 118°48'20 7.8
2015-Jun-20 04:33N 24°29' E 119°07'1010.5
2015-Jun-20 03:33N 24°35' E 119°16'3110.4
2015-Jun-20 00:33N 24°54' E 119°43'  
Track history (hours):
 
Tides and Currents Weather Stations Pressure Air Temp Water Temp Dewpoint Dewpoint Depression Visibility Wind Speed Wind Dir Waves Ship Positions

Hyundai Forward

Last reported at 2015-Jun-26 06:13 UTC. Time now 2015-Jul-06 04:55 UTC.
Position N 30°36' E 122°57'.
Warning: this ship's position is 9 days out of date.

Length 295 m; draft 10 m.

Type: Cargo ship. MMSI: 372652000.

Date/timePositionNaut miles runAvg speedWind from/ knotsBaromVisibWave heightAir tempDewpointWater temp
2015-Jun-26 06:13N 30°36' E 122°57'1217.2
2015-Jun-26 05:33N 30°33' E 122°44'1716.5
2015-Jun-26 04:31N 30°31' E 122°25'1414.1
2015-Jun-26 03:33N 30°34' E 122°09'4 0.6
2015-Jun-25 20:33N 30°36' E 122°05'0 0.0
2015-Jun-25 18:33N 30°36' E 122°05'0 0.0
2015-Jun-25 15:09N 30°36' E 122°05'0 0.1
2015-Jun-25 14:15N 30°36' E 122°05'7 9.5
2015-Jun-25 13:33N 30°34' E 122°12'10 9.3
2015-Jun-25 12:29N 30°31' E 122°24'1 0.8
2015-Jun-25 11:33N 30°31' E 122°24'6 0.7
2015-Jun-25 03:04N 30°29' E 122°30'1 2.7
2015-Jun-25 02:32N 30°29' E 122°32'8 7.8
2015-Jun-25 01:33N 30°29' E 122°41'1010.0
2015-Jun-25 00:33N 30°25' E 122°51'9 7.6
2015-Jun-24 23:22N 30°19' E 122°59'36 7.3
2015-Jun-24 18:31N 29°46' E 122°43'8 7.6
2015-Jun-24 17:32N 29°41' E 122°36'7 7.0
2015-Jun-24 16:33N 29°42' E 122°28'8 7.9
2015-Jun-24 15:31N 29°44' E 122°19'9 9.3
2015-Jun-24 14:33N 29°51' E 122°12'1110.7
2015-Jun-24 13:33N 29°46' E 122°01'0 0.1
2015-Jun-24 10:31N 29°46' E 122°00'0 0.0
2015-Jun-24 04:19N 29°46' E 122°00'0 0.2
2015-Jun-24 03:33N 29°46' E 122°01'1 0.8
2015-Jun-24 02:14N 29°46' E 122°02'0 0.0
2015-Jun-24 00:32N 29°46' E 122°02'0 0.0
2015-Jun-23 23:26N 29°46' E 122°02'0 0.1
2015-Jun-23 22:32N 29°46' E 122°02'0 0.2
2015-Jun-23 21:32N 29°47' E 122°02'0 0.0
2015-Jun-23 20:32N 29°47' E 122°02'0 0.0
2015-Jun-23 19:20N 29°47' E 122°02'0 0.2
2015-Jun-23 19:02N 29°47' E 122°02'425 9.6
2015-Jun-21 22:31N 22°56' E 119°57'1515.8
2015-Jun-21 21:33N 22°43' E 120°05'1514.7
2015-Jun-21 20:34N 22°33' E 120°16'2 1.8
2015-Jun-21 19:16N 22°34' E 120°19'0 0.0
2015-Jun-21 18:28N 22°34' E 120°19'0 0.0
2015-Jun-21 17:10N 22°34' E 120°19'0 0.0
2015-Jun-21 16:28N 22°34' E 120°19'0 0.1
2015-Jun-21 15:28N 22°34' E 120°19'0 0.0
2015-Jun-21 14:28N 22°34' E 120°19'0 0.1
2015-Jun-21 13:28N 22°34' E 120°19'0 0.0
2015-Jun-21 12:28N 22°34' E 120°19'0 0.0
2015-Jun-21 11:28N 22°34' E 120°19'0 0.0
2015-Jun-21 10:28N 22°34' E 120°19'0 0.0
2015-Jun-21 09:28N 22°34' E 120°19'0 0.1
2015-Jun-21 08:33N 22°34' E 120°19'6 5.9
2015-Jun-21 07:30N 22°32' E 120°12'1415.1
2015-Jun-21 06:33N 22°44' E 120°04'12215.1
2015-Jun-20 22:28N 24°09' E 118°28'1415.2
2015-Jun-20 21:33N 24°16' E 118°15'1413.8
2015-Jun-20 20:33N 24°25' E 118°04'3 3.4
2015-Jun-20 19:31N 24°27' E 118°00'0 0.0
2015-Jun-20 18:31N 24°27' E 118°00'0 0.0
2015-Jun-20 17:19N 24°27' E 118°00'0 0.0
2015-Jun-20 16:19N 24°27' E 118°00'0 0.0
2015-Jun-20 15:07N 24°27' E 118°00'0 0.0
2015-Jun-20 13:13N 24°27' E 118°00'3 5.0
2015-Jun-20 12:32N 24°26' E 118°04'10 9.9
2015-Jun-20 11:33N 24°19' E 118°12'10 9.9
2015-Jun-20 10:33N 24°11' E 118°19'8 8.3
2015-Jun-20 09:32N 24°11' E 118°28'8 8.0
2015-Jun-20 08:33N 24°13' E 118°36'12 8.2
2015-Jun-20 07:03N 24°19' E 118°48'20 7.8
2015-Jun-20 04:33N 24°29' E 119°07'1010.5
2015-Jun-20 03:33N 24°35' E 119°16'3110.4
2015-Jun-20 00:33N 24°54' E 119°43'  

Dump ship's entire track history